sensor_id;sensor_type;location;lat;lon;timestamp;P1;durP1;ratioP1;P2;durP2;ratioP2
5209;SDS011;2624;48.048;11.706;2023-03-08T00:00:57;12.37;;;7.40;;
5209;SDS011;2624;48.048;11.706;2023-03-08T00:06:03;10.20;;;6.30;;
5209;SDS011;2624;48.048;11.706;2023-03-08T00:11:06;8.73;;;5.17;;
5209;SDS011;2624;48.048;11.706;2023-03-08T00:16:09;4.43;;;3.37;;
5209;SDS011;2624;48.048;11.706;2023-03-08T00:21:14;7.10;;;3.40;;
5209;SDS011;2624;48.048;11.706;2023-03-08T00:26:17;13.53;;;5.33;;
5209;SDS011;2624;48.048;11.706;2023-03-08T00:31:19;10.67;;;5.00;;
5209;SDS011;2624;48.048;11.706;2023-03-08T00:36:22;3.37;;;2.57;;
5209;SDS011;2624;48.048;11.706;2023-03-08T00:41:24;8.07;;;3.63;;
5209;SDS011;2624;48.048;11.706;2023-03-08T00:46:26;6.07;;;3.43;;
5209;SDS011;2624;48.048;11.706;2023-03-08T00:51:29;3.23;;;2.10;;
5209;SDS011;2624;48.048;11.706;2023-03-08T00:56:31;7.73;;;4.23;;
5209;SDS011;2624;48.048;11.706;2023-03-08T01:01:33;2.30;;;1.80;;
5209;SDS011;2624;48.048;11.706;2023-03-08T01:06:36;7.93;;;3.37;;
5209;SDS011;2624;48.048;11.706;2023-03-08T01:11:38;7.80;;;4.60;;
5209;SDS011;2624;48.048;11.706;2023-03-08T01:16:40;6.70;;;3.27;;
5209;SDS011;2624;48.048;11.706;2023-03-08T01:21:43;7.83;;;4.37;;
5209;SDS011;2624;48.048;11.706;2023-03-08T01:26:44;6.07;;;3.20;;
5209;SDS011;2624;48.048;11.706;2023-03-08T01:31:46;6.57;;;2.67;;
5209;SDS011;2624;48.048;11.706;2023-03-08T01:36:49;12.90;;;5.90;;
5209;SDS011;2624;48.048;11.706;2023-03-08T01:41:51;6.23;;;3.73;;
5209;SDS011;2624;48.048;11.706;2023-03-08T01:46:53;6.17;;;3.63;;
5209;SDS011;2624;48.048;11.706;2023-03-08T01:51:57;10.33;;;3.93;;
5209;SDS011;2624;48.048;11.706;2023-03-08T01:57:04;5.23;;;3.13;;
5209;SDS011;2624;48.048;11.706;2023-03-08T02:02:09;9.47;;;4.47;;
5209;SDS011;2624;48.048;11.706;2023-03-08T02:07:12;8.17;;;4.33;;
5209;SDS011;2624;48.048;11.706;2023-03-08T02:12:14;10.10;;;4.37;;
5209;SDS011;2624;48.048;11.706;2023-03-08T02:17:16;7.90;;;4.30;;
5209;SDS011;2624;48.048;11.706;2023-03-08T02:22:19;9.83;;;5.47;;
5209;SDS011;2624;48.048;11.706;2023-03-08T02:27:23;8.17;;;4.70;;
5209;SDS011;2624;48.048;11.706;2023-03-08T02:32:27;16.13;;;3.73;;
5209;SDS011;2624;48.048;11.706;2023-03-08T02:37:29;9.87;;;4.40;;
5209;SDS011;2624;48.048;11.706;2023-03-08T02:42:33;5.43;;;3.87;;
5209;SDS011;2624;48.048;11.706;2023-03-08T02:47:35;6.97;;;4.10;;
5209;SDS011;2624;48.048;11.706;2023-03-08T02:52:36;8.47;;;4.10;;
5209;SDS011;2624;48.048;11.706;2023-03-08T02:57:40;7.87;;;4.23;;
5209;SDS011;2624;48.048;11.706;2023-03-08T03:02:41;14.17;;;4.60;;
5209;SDS011;2624;48.048;11.706;2023-03-08T03:07:43;7.27;;;4.80;;
5209;SDS011;2624;48.048;11.706;2023-03-08T03:12:46;13.50;;;5.20;;
5209;SDS011;2624;48.048;11.706;2023-03-08T03:17:48;11.83;;;3.90;;
5209;SDS011;2624;48.048;11.706;2023-03-08T03:22:49;6.17;;;4.07;;
5209;SDS011;2624;48.048;11.706;2023-03-08T03:27:54;5.93;;;2.57;;
5209;SDS011;2624;48.048;11.706;2023-03-08T03:32:56;11.43;;;5.50;;
5209;SDS011;2624;48.048;11.706;2023-03-08T03:37:58;7.87;;;4.60;;
5209;SDS011;2624;48.048;11.706;2023-03-08T03:43:01;6.87;;;4.50;;
5209;SDS011;2624;48.048;11.706;2023-03-08T03:48:03;8.57;;;4.60;;
5209;SDS011;2624;48.048;11.706;2023-03-08T03:53:05;8.00;;;4.83;;
5209;SDS011;2624;48.048;11.706;2023-03-08T03:58:08;7.50;;;4.53;;
5209;SDS011;2624;48.048;11.706;2023-03-08T04:03:09;6.67;;;4.00;;
5209;SDS011;2624;48.048;11.706;2023-03-08T04:08:11;8.13;;;4.97;;
5209;SDS011;2624;48.048;11.706;2023-03-08T04:13:15;8.47;;;4.37;;
5209;SDS011;2624;48.048;11.706;2023-03-08T04:18:16;10.80;;;5.17;;
5209;SDS011;2624;48.048;11.706;2023-03-08T04:23:18;7.10;;;4.90;;
5209;SDS011;2624;48.048;11.706;2023-03-08T04:28:21;11.23;;;4.60;;
5209;SDS011;2624;48.048;11.706;2023-03-08T04:33:23;12.83;;;6.00;;
5209;SDS011;2624;48.048;11.706;2023-03-08T04:38:25;10.90;;;6.60;;
5209;SDS011;2624;48.048;11.706;2023-03-08T04:43:28;6.13;;;4.67;;
5209;SDS011;2624;48.048;11.706;2023-03-08T04:48:30;13.43;;;5.53;;
5209;SDS011;2624;48.048;11.706;2023-03-08T04:53:32;9.20;;;5.10;;
5209;SDS011;2624;48.048;11.706;2023-03-08T04:58:36;13.43;;;6.23;;
5209;SDS011;2624;48.048;11.706;2023-03-08T05:03:38;10.90;;;5.80;;
5209;SDS011;2624;48.048;11.706;2023-03-08T05:08:40;13.77;;;5.63;;
5209;SDS011;2624;48.048;11.706;2023-03-08T05:13:43;13.60;;;6.27;;
5209;SDS011;2624;48.048;11.706;2023-03-08T05:18:44;13.50;;;5.73;;
5209;SDS011;2624;48.048;11.706;2023-03-08T05:23:46;12.43;;;6.40;;
5209;SDS011;2624;48.048;11.706;2023-03-08T05:28:50;15.97;;;6.40;;
5209;SDS011;2624;48.048;11.706;2023-03-08T05:33:51;14.23;;;5.80;;
5209;SDS011;2624;48.048;11.706;2023-03-08T05:38:53;8.87;;;4.37;;
5209;SDS011;2624;48.048;11.706;2023-03-08T05:43:56;11.37;;;6.60;;
5209;SDS011;2624;48.048;11.706;2023-03-08T05:49:00;13.67;;;6.93;;
5209;SDS011;2624;48.048;11.706;2023-03-08T05:54:02;11.83;;;6.73;;
5209;SDS011;2624;48.048;11.706;2023-03-08T05:59:05;19.60;;;7.83;;
5209;SDS011;2624;48.048;11.706;2023-03-08T06:04:08;12.97;;;8.17;;
5209;SDS011;2624;48.048;11.706;2023-03-08T06:09:10;12.77;;;7.00;;
5209;SDS011;2624;48.048;11.706;2023-03-08T06:14:13;12.20;;;6.30;;
5209;SDS011;2624;48.048;11.706;2023-03-08T06:19:15;15.80;;;7.50;;
5209;SDS011;2624;48.048;11.706;2023-03-08T06:24:17;15.63;;;6.00;;
5209;SDS011;2624;48.048;11.706;2023-03-08T06:29:20;13.40;;;5.57;;
5209;SDS011;2624;48.048;11.706;2023-03-08T06:34:21;14.57;;;6.93;;
5209;SDS011;2624;48.048;11.706;2023-03-08T06:39:23;13.33;;;6.37;;
5209;SDS011;2624;48.048;11.706;2023-03-08T06:44:27;13.30;;;5.60;;
5209;SDS011;2624;48.048;11.706;2023-03-08T06:49:29;8.07;;;4.77;;
5209;SDS011;2624;48.048;11.706;2023-03-08T06:54:31;12.20;;;5.33;;
5209;SDS011;2624;48.048;11.706;2023-03-08T06:59:34;13.83;;;6.50;;
5209;SDS011;2624;48.048;11.706;2023-03-08T07:04:36;13.07;;;6.77;;
5209;SDS011;2624;48.048;11.706;2023-03-08T07:09:37;12.87;;;5.50;;
5209;SDS011;2624;48.048;11.706;2023-03-08T07:14:40;14.17;;;5.10;;
5209;SDS011;2624;48.048;11.706;2023-03-08T07:19:42;11.87;;;5.83;;
5209;SDS011;2624;48.048;11.706;2023-03-08T07:24:45;12.53;;;6.27;;
5209;SDS011;2624;48.048;11.706;2023-03-08T07:29:48;16.17;;;8.10;;
5209;SDS011;2624;48.048;11.706;2023-03-08T07:34:50;19.03;;;7.33;;
5209;SDS011;2624;48.048;11.706;2023-03-08T07:39:52;22.20;;;8.17;;
5209;SDS011;2624;48.048;11.706;2023-03-08T07:44:55;16.77;;;7.33;;
5209;SDS011;2624;48.048;11.706;2023-03-08T07:49:57;18.90;;;6.27;;
5209;SDS011;2624;48.048;11.706;2023-03-08T07:54:59;7.87;;;5.97;;
5209;SDS011;2624;48.048;11.706;2023-03-08T08:00:03;12.73;;;6.90;;
5209;SDS011;2624;48.048;11.706;2023-03-08T08:05:07;14.37;;;6.70;;
5209;SDS011;2624;48.048;11.706;2023-03-08T08:10:09;11.23;;;6.47;;
5209;SDS011;2624;48.048;11.706;2023-03-08T08:15:13;26.90;;;8.80;;
5209;SDS011;2624;48.048;11.706;2023-03-08T08:20:15;19.20;;;9.53;;
5209;SDS011;2624;48.048;11.706;2023-03-08T08:25:17;23.17;;;9.50;;
5209;SDS011;2624;48.048;11.706;2023-03-08T08:30:22;17.13;;;7.83;;
5209;SDS011;2624;48.048;11.706;2023-03-08T08:35:23;14.50;;;6.93;;
5209;SDS011;2624;48.048;11.706;2023-03-08T08:40:25;17.60;;;8.17;;
5209;SDS011;2624;48.048;11.706;2023-03-08T08:45:28;23.20;;;9.50;;
5209;SDS011;2624;48.048;11.706;2023-03-08T08:50:30;16.33;;;7.57;;
5209;SDS011;2624;48.048;11.706;2023-03-08T08:55:32;14.47;;;8.00;;
5209;SDS011;2624;48.048;11.706;2023-03-08T09:00:35;22.47;;;9.23;;
5209;SDS011;2624;48.048;11.706;2023-03-08T09:05:38;21.07;;;12.77;;
5209;SDS011;2624;48.048;11.706;2023-03-08T09:10:41;29.23;;;15.73;;
5209;SDS011;2624;48.048;11.706;2023-03-08T09:15:44;30.70;;;14.67;;
5209;SDS011;2624;48.048;11.706;2023-03-08T09:20:46;28.63;;;12.43;;
5209;SDS011;2624;48.048;11.706;2023-03-08T09:25:54;27.57;;;16.33;;
5209;SDS011;2624;48.048;11.706;2023-03-08T09:30:58;22.93;;;9.60;;
5209;SDS011;2624;48.048;11.706;2023-03-08T09:36:02;25.40;;;10.67;;
5209;SDS011;2624;48.048;11.706;2023-03-08T09:41:08;25.70;;;8.20;;
5209;SDS011;2624;48.048;11.706;2023-03-08T09:46:22;20.87;;;13.17;;
5209;SDS011;2624;48.048;11.706;2023-03-08T09:51:30;21.13;;;10.97;;
5209;SDS011;2624;48.048;11.706;2023-03-08T09:56:35;30.30;;;14.70;;
5209;SDS011;2624;48.048;11.706;2023-03-08T10:01:44;21.73;;;8.60;;
5209;SDS011;2624;48.048;11.706;2023-03-08T10:06:54;19.10;;;7.57;;
5209;SDS011;2624;48.048;11.706;2023-03-08T10:12:13;25.40;;;9.50;;
5209;SDS011;2624;48.048;11.706;2023-03-08T10:17:27;21.20;;;10.70;;
5209;SDS011;2624;48.048;11.706;2023-03-08T10:22:38;23.20;;;11.17;;
5209;SDS011;2624;48.048;11.706;2023-03-08T10:27:41;30.57;;;11.90;;
5209;SDS011;2624;48.048;11.706;2023-03-08T10:32:46;25.43;;;11.17;;
5209;SDS011;2624;48.048;11.706;2023-03-08T10:37:50;24.73;;;10.43;;
5209;SDS011;2624;48.048;11.706;2023-03-08T10:42:52;17.73;;;9.27;;
5209;SDS011;2624;48.048;11.706;2023-03-08T10:48:02;19.80;;;9.00;;
5209;SDS011;2624;48.048;11.706;2023-03-08T10:53:09;23.73;;;9.83;;
5209;SDS011;2624;48.048;11.706;2023-03-08T10:58:25;13.53;;;7.50;;
5209;SDS011;2624;48.048;11.706;2023-03-08T11:03:34;20.20;;;8.47;;
5209;SDS011;2624;48.048;11.706;2023-03-08T11:08:36;16.47;;;7.70;;
5209;SDS011;2624;48.048;11.706;2023-03-08T11:13:40;21.27;;;8.23;;
5209;SDS011;2624;48.048;11.706;2023-03-08T11:18:55;17.93;;;9.53;;
5209;SDS011;2624;48.048;11.706;2023-03-08T11:24:05;17.47;;;9.60;;
5209;SDS011;2624;48.048;11.706;2023-03-08T11:29:20;16.17;;;7.53;;
5209;SDS011;2624;48.048;11.706;2023-03-08T11:34:43;12.20;;;4.90;;
5209;SDS011;2624;48.048;11.706;2023-03-08T11:40:05;17.83;;;7.80;;
5209;SDS011;2624;48.048;11.706;2023-03-08T11:45:22;20.67;;;8.60;;
5209;SDS011;2624;48.048;11.706;2023-03-08T11:50:29;15.70;;;7.40;;
5209;SDS011;2624;48.048;11.706;2023-03-08T11:55:40;16.23;;;7.17;;
5209;SDS011;2624;48.048;11.706;2023-03-08T12:00:48;13.67;;;6.37;;
5209;SDS011;2624;48.048;11.706;2023-03-08T12:05:55;11.60;;;6.13;;
5209;SDS011;2624;48.048;11.706;2023-03-08T12:11:01;15.10;;;6.90;;
5209;SDS011;2624;48.048;11.706;2023-03-08T12:16:07;15.90;;;6.90;;
5209;SDS011;2624;48.048;11.706;2023-03-08T12:21:17;15.07;;;6.60;;
5209;SDS011;2624;48.048;11.706;2023-03-08T12:26:28;17.27;;;7.20;;
5209;SDS011;2624;48.048;11.706;2023-03-08T12:31:34;14.93;;;6.57;;
5209;SDS011;2624;48.048;11.706;2023-03-08T12:36:42;16.93;;;9.40;;
5209;SDS011;2624;48.048;11.706;2023-03-08T12:41:44;12.97;;;7.40;;
5209;SDS011;2624;48.048;11.706;2023-03-08T12:46:58;17.50;;;7.10;;
5209;SDS011;2624;48.048;11.706;2023-03-08T12:52:04;13.10;;;7.47;;
5209;SDS011;2624;48.048;11.706;2023-03-08T12:57:13;10.37;;;6.30;;
5209;SDS011;2624;48.048;11.706;2023-03-08T13:02:21;12.57;;;6.00;;
5209;SDS011;2624;48.048;11.706;2023-03-08T13:07:27;15.43;;;5.97;;
5209;SDS011;2624;48.048;11.706;2023-03-08T13:12:38;14.83;;;6.03;;
5209;SDS011;2624;48.048;11.706;2023-03-08T13:17:57;9.97;;;6.23;;
5209;SDS011;2624;48.048;11.706;2023-03-08T13:23:06;6.57;;;4.50;;
5209;SDS011;2624;48.048;11.706;2023-03-08T13:28:18;5.00;;;2.80;;
5209;SDS011;2624;48.048;11.706;2023-03-08T13:33:22;2.90;;;2.07;;
5209;SDS011;2624;48.048;11.706;2023-03-08T13:38:27;1.20;;;0.90;;
5209;SDS011;2624;48.048;11.706;2023-03-08T13:43:31;0.93;;;0.73;;
5209;SDS011;2624;48.048;11.706;2023-03-08T13:48:35;0.37;;;0.37;;
5209;SDS011;2624;48.048;11.706;2023-03-08T13:53:38;0.33;;;0.33;;
5209;SDS011;2624;48.048;11.706;2023-03-08T13:58:44;0.50;;;0.50;;
5209;SDS011;2624;48.048;11.706;2023-03-08T14:03:49;0.70;;;0.43;;
5209;SDS011;2624;48.048;11.706;2023-03-08T14:08:55;0.40;;;0.40;;
5209;SDS011;2624;48.048;11.706;2023-03-08T14:13:59;7.87;;;0.90;;
5209;SDS011;2624;48.048;11.706;2023-03-08T14:19:08;0.80;;;0.80;;
5209;SDS011;2624;48.048;11.706;2023-03-08T14:24:17;0.60;;;0.60;;
5209;SDS011;2624;48.048;11.706;2023-03-08T14:29:21;0.50;;;0.50;;
5209;SDS011;2624;48.048;11.706;2023-03-08T14:34:25;0.50;;;0.50;;
5209;SDS011;2624;48.048;11.706;2023-03-08T14:39:30;0.40;;;0.40;;
5209;SDS011;2624;48.048;11.706;2023-03-08T14:44:33;0.40;;;0.40;;
5209;SDS011;2624;48.048;11.706;2023-03-08T14:49:35;1.60;;;0.43;;
5209;SDS011;2624;48.048;11.706;2023-03-08T14:54:38;0.47;;;0.40;;
5209;SDS011;2624;48.048;11.706;2023-03-08T14:59:40;0.63;;;0.60;;
5209;SDS011;2624;48.048;11.706;2023-03-08T15:04:43;0.60;;;0.60;;
5209;SDS011;2624;48.048;11.706;2023-03-08T15:09:47;0.50;;;0.50;;
5209;SDS011;2624;48.048;11.706;2023-03-08T15:14:50;0.40;;;0.40;;
5209;SDS011;2624;48.048;11.706;2023-03-08T15:19:52;0.40;;;0.40;;
5209;SDS011;2624;48.048;11.706;2023-03-08T15:24:55;0.43;;;0.43;;
5209;SDS011;2624;48.048;11.706;2023-03-08T15:29:56;0.50;;;0.50;;
5209;SDS011;2624;48.048;11.706;2023-03-08T15:34:58;0.63;;;0.63;;
5209;SDS011;2624;48.048;11.706;2023-03-08T15:40:01;0.40;;;0.40;;
5209;SDS011;2624;48.048;11.706;2023-03-08T15:45:06;0.50;;;0.50;;
5209;SDS011;2624;48.048;11.706;2023-03-08T15:50:12;0.50;;;0.50;;
5209;SDS011;2624;48.048;11.706;2023-03-08T15:55:17;1.57;;;1.47;;
5209;SDS011;2624;48.048;11.706;2023-03-08T16:00:20;1.10;;;0.50;;
5209;SDS011;2624;48.048;11.706;2023-03-08T16:05:23;0.50;;;0.50;;
5209;SDS011;2624;48.048;11.706;2023-03-08T16:10:27;1.10;;;1.10;;
5209;SDS011;2624;48.048;11.706;2023-03-08T16:15:30;0.80;;;0.80;;
5209;SDS011;2624;48.048;11.706;2023-03-08T16:20:32;0.77;;;0.77;;
5209;SDS011;2624;48.048;11.706;2023-03-08T16:25:35;0.40;;;0.40;;
5209;SDS011;2624;48.048;11.706;2023-03-08T16:30:37;0.60;;;0.60;;
5209;SDS011;2624;48.048;11.706;2023-03-08T16:35:46;0.53;;;0.53;;
5209;SDS011;2624;48.048;11.706;2023-03-08T16:40:50;0.40;;;0.40;;
5209;SDS011;2624;48.048;11.706;2023-03-08T16:45:53;0.77;;;0.60;;
5209;SDS011;2624;48.048;11.706;2023-03-08T16:50:56;0.60;;;0.40;;
5209;SDS011;2624;48.048;11.706;2023-03-08T16:56:00;0.43;;;0.43;;
5209;SDS011;2624;48.048;11.706;2023-03-08T17:01:08;0.50;;;0.50;;
5209;SDS011;2624;48.048;11.706;2023-03-08T17:06:11;0.70;;;0.70;;
5209;SDS011;2624;48.048;11.706;2023-03-08T17:11:17;0.63;;;0.63;;
5209;SDS011;2624;48.048;11.706;2023-03-08T17:16:21;0.70;;;0.70;;
5209;SDS011;2624;48.048;11.706;2023-03-08T17:21:25;0.63;;;0.63;;
5209;SDS011;2624;48.048;11.706;2023-03-08T17:26:29;0.87;;;0.60;;
5209;SDS011;2624;48.048;11.706;2023-03-08T17:31:30;0.60;;;0.43;;
5209;SDS011;2624;48.048;11.706;2023-03-08T17:36:32;3.53;;;0.60;;
5209;SDS011;2624;48.048;11.706;2023-03-08T17:41:35;1.57;;;0.50;;
5209;SDS011;2624;48.048;11.706;2023-03-08T17:46:38;0.53;;;0.53;;
5209;SDS011;2624;48.048;11.706;2023-03-08T17:51:40;0.60;;;0.60;;
5209;SDS011;2624;48.048;11.706;2023-03-08T17:56:43;0.90;;;0.80;;
5209;SDS011;2624;48.048;11.706;2023-03-08T18:01:45;4.77;;;1.80;;
5209;SDS011;2624;48.048;11.706;2023-03-08T18:06:47;0.50;;;0.50;;
5209;SDS011;2624;48.048;11.706;2023-03-08T18:11:50;5.30;;;0.83;;
5209;SDS011;2624;48.048;11.706;2023-03-08T18:16:52;0.63;;;0.63;;
5209;SDS011;2624;48.048;11.706;2023-03-08T18:21:53;1.30;;;1.20;;
5209;SDS011;2624;48.048;11.706;2023-03-08T18:26:57;1.00;;;0.73;;
5209;SDS011;2624;48.048;11.706;2023-03-08T18:32:00;1.00;;;1.00;;
5209;SDS011;2624;48.048;11.706;2023-03-08T18:37:02;4.87;;;1.30;;
5209;SDS011;2624;48.048;11.706;2023-03-08T18:42:06;2.70;;;2.23;;
5209;SDS011;2624;48.048;11.706;2023-03-08T18:47:09;1.13;;;1.10;;
5209;SDS011;2624;48.048;11.706;2023-03-08T18:52:11;1.00;;;1.00;;
5209;SDS011;2624;48.048;11.706;2023-03-08T18:57:14;0.50;;;0.50;;
5209;SDS011;2624;48.048;11.706;2023-03-08T19:02:16;0.97;;;0.60;;
5209;SDS011;2624;48.048;11.706;2023-03-08T19:07:20;0.43;;;0.43;;
5209;SDS011;2624;48.048;11.706;2023-03-08T19:12:23;0.50;;;0.50;;
5209;SDS011;2624;48.048;11.706;2023-03-08T19:17:24;0.50;;;0.50;;
5209;SDS011;2624;48.048;11.706;2023-03-08T19:22:26;0.50;;;0.50;;
5209;SDS011;2624;48.048;11.706;2023-03-08T19:27:29;0.30;;;0.30;;
5209;SDS011;2624;48.048;11.706;2023-03-08T19:32:33;0.80;;;0.40;;
5209;SDS011;2624;48.048;11.706;2023-03-08T19:37:34;0.40;;;0.40;;
5209;SDS011;2624;48.048;11.706;2023-03-08T19:42:38;0.43;;;0.43;;
5209;SDS011;2624;48.048;11.706;2023-03-08T19:47:39;0.50;;;0.50;;
5209;SDS011;2624;48.048;11.706;2023-03-08T19:52:41;0.63;;;0.50;;
5209;SDS011;2624;48.048;11.706;2023-03-08T19:57:44;0.77;;;0.50;;
5209;SDS011;2624;48.048;11.706;2023-03-08T20:02:46;1.40;;;0.77;;
5209;SDS011;2624;48.048;11.706;2023-03-08T20:07:48;0.70;;;0.70;;
5209;SDS011;2624;48.048;11.706;2023-03-08T20:12:51;0.53;;;0.53;;
5209;SDS011;2624;48.048;11.706;2023-03-08T20:17:52;0.60;;;0.57;;
5209;SDS011;2624;48.048;11.706;2023-03-08T20:22:54;0.90;;;0.90;;
5209;SDS011;2624;48.048;11.706;2023-03-08T20:27:57;0.53;;;0.53;;
5209;SDS011;2624;48.048;11.706;2023-03-08T20:32:59;1.60;;;0.83;;
5209;SDS011;2624;48.048;11.706;2023-03-08T20:38:01;0.73;;;0.73;;
5209;SDS011;2624;48.048;11.706;2023-03-08T20:43:04;0.60;;;0.60;;
5209;SDS011;2624;48.048;11.706;2023-03-08T20:48:09;0.43;;;0.43;;
5209;SDS011;2624;48.048;11.706;2023-03-08T20:53:11;0.63;;;0.47;;
5209;SDS011;2624;48.048;11.706;2023-03-08T20:58:14;0.77;;;0.63;;
5209;SDS011;2624;48.048;11.706;2023-03-08T21:03:16;0.97;;;0.60;;
5209;SDS011;2624;48.048;11.706;2023-03-08T21:08:18;0.70;;;0.70;;
5209;SDS011;2624;48.048;11.706;2023-03-08T21:13:24;0.87;;;0.60;;
5209;SDS011;2624;48.048;11.706;2023-03-08T21:18:26;0.60;;;0.60;;
5209;SDS011;2624;48.048;11.706;2023-03-08T21:23:28;1.53;;;0.80;;
5209;SDS011;2624;48.048;11.706;2023-03-08T21:28:31;0.60;;;0.60;;
5209;SDS011;2624;48.048;11.706;2023-03-08T21:33:32;4.10;;;0.80;;
5209;SDS011;2624;48.048;11.706;2023-03-08T21:38:34;3.60;;;0.80;;
5209;SDS011;2624;48.048;11.706;2023-03-08T21:43:37;0.73;;;0.50;;
5209;SDS011;2624;48.048;11.706;2023-03-08T21:48:39;4.43;;;1.23;;
5209;SDS011;2624;48.048;11.706;2023-03-08T21:53:41;7.03;;;1.33;;
5209;SDS011;2624;48.048;11.706;2023-03-08T21:58:44;0.83;;;0.83;;
5209;SDS011;2624;48.048;11.706;2023-03-08T22:03:46;1.70;;;1.10;;
5209;SDS011;2624;48.048;11.706;2023-03-08T22:08:48;0.90;;;0.90;;
5209;SDS011;2624;48.048;11.706;2023-03-08T22:13:53;13.43;;;1.77;;
5209;SDS011;2624;48.048;11.706;2023-03-08T22:18:57;1.53;;;1.47;;
5209;SDS011;2624;48.048;11.706;2023-03-08T22:24:01;1.33;;;1.23;;
5209;SDS011;2624;48.048;11.706;2023-03-08T22:29:04;1.93;;;1.00;;
5209;SDS011;2624;48.048;11.706;2023-03-08T22:34:06;1.20;;;1.20;;
5209;SDS011;2624;48.048;11.706;2023-03-08T22:39:09;0.90;;;0.90;;
5209;SDS011;2624;48.048;11.706;2023-03-08T22:44:12;3.30;;;1.10;;
5209;SDS011;2624;48.048;11.706;2023-03-08T22:49:14;1.10;;;1.10;;
5209;SDS011;2624;48.048;11.706;2023-03-08T22:54:16;1.23;;;1.10;;
5209;SDS011;2624;48.048;11.706;2023-03-08T22:59:21;0.83;;;0.83;;
5209;SDS011;2624;48.048;11.706;2023-03-08T23:04:24;1.47;;;1.20;;
5209;SDS011;2624;48.048;11.706;2023-03-08T23:09:26;0.60;;;0.60;;
5209;SDS011;2624;48.048;11.706;2023-03-08T23:14:29;2.03;;;0.80;;
5209;SDS011;2624;48.048;11.706;2023-03-08T23:19:31;1.30;;;1.30;;
5209;SDS011;2624;48.048;11.706;2023-03-08T23:24:32;0.63;;;0.60;;
5209;SDS011;2624;48.048;11.706;2023-03-08T23:29:36;9.50;;;0.93;;
5209;SDS011;2624;48.048;11.706;2023-03-08T23:34:38;0.73;;;0.73;;
5209;SDS011;2624;48.048;11.706;2023-03-08T23:39:41;0.70;;;0.70;;
5209;SDS011;2624;48.048;11.706;2023-03-08T23:44:44;0.70;;;0.70;;
5209;SDS011;2624;48.048;11.706;2023-03-08T23:49:46;9.07;;;1.00;;
5209;SDS011;2624;48.048;11.706;2023-03-08T23:54:48;0.80;;;0.80;;
5209;SDS011;2624;48.048;11.706;2023-03-08T23:59:51;0.70;;;0.70;;
